createdAt,value
2023-12-21T00:01:27.175Z,21.30
2023-12-21T00:03:55.237Z,16.00
2023-12-21T00:06:23.355Z,17.20
2023-12-21T00:08:51.344Z,20.60
2023-12-21T00:11:19.275Z,13.70
2023-12-21T00:13:47.431Z,11.70
2023-12-21T00:16:16.540Z,12.10
2023-12-21T00:18:44.485Z,15.20
2023-12-21T00:21:12.454Z,11.10
2023-12-21T00:23:40.416Z,11.40
2023-12-21T00:26:08.715Z,13.20
2023-12-21T00:28:36.712Z,15.40
2023-12-21T00:31:05.088Z,13.00
2023-12-21T00:33:33.221Z,14.30
2023-12-21T00:36:01.321Z,12.60
2023-12-21T00:38:29.294Z,12.00
2023-12-21T00:40:58.448Z,10.20
2023-12-21T00:43:27.044Z,9.80
2023-12-21T00:45:55.172Z,12.50
2023-12-21T00:48:23.235Z,12.20
2023-12-21T00:50:51.358Z,12.00
2023-12-21T00:53:20.725Z,10.30
2023-12-21T00:55:48.653Z,8.40
2023-12-21T00:58:16.733Z,8.70
2023-12-21T01:00:44.893Z,11.20
2023-12-21T01:03:12.943Z,8.70
2023-12-21T01:05:41.592Z,6.90
2023-12-21T01:08:10.029Z,9.70
2023-12-21T01:10:39.933Z,8.20
2023-12-21T01:13:08.689Z,9.80
2023-12-21T01:15:36.762Z,9.40
2023-12-21T01:18:04.934Z,8.20
2023-12-21T01:20:33.505Z,10.50
2023-12-21T01:23:01.444Z,8.10
2023-12-21T01:25:29.455Z,9.40
2023-12-21T01:27:57.543Z,7.70
2023-12-21T01:30:25.584Z,8.30
2023-12-21T01:32:54.938Z,8.50
2023-12-21T01:35:23.058Z,10.00
2023-12-21T01:37:51.190Z,8.10
2023-12-21T01:40:19.323Z,9.30
2023-12-21T01:42:47.592Z,6.20
2023-12-21T01:45:15.826Z,7.60
2023-12-21T01:47:43.938Z,7.00
2023-12-21T01:50:12.272Z,7.50
2023-12-21T01:52:40.436Z,6.90
2023-12-21T01:55:09.432Z,8.20
2023-12-21T01:57:38.265Z,6.90
2023-12-21T02:00:07.662Z,7.10
2023-12-21T02:02:35.663Z,6.00
2023-12-21T02:05:03.761Z,5.80
2023-12-21T02:07:31.796Z,5.60
2023-12-21T02:09:59.996Z,5.20
2023-12-21T02:12:28.106Z,5.90
2023-12-21T02:14:56.144Z,7.00
2023-12-21T02:17:24.139Z,6.30
2023-12-21T02:19:52.385Z,6.30
2023-12-21T02:22:20.925Z,5.40
2023-12-21T02:24:48.861Z,5.10
2023-12-21T02:27:16.878Z,4.70
2023-12-21T02:29:44.816Z,4.90
2023-12-21T02:32:12.825Z,4.80
2023-12-21T02:34:40.860Z,6.40
2023-12-21T02:37:08.869Z,4.80
2023-12-21T02:39:36.851Z,6.10
2023-12-21T02:42:05.520Z,6.30
2023-12-21T02:44:33.543Z,5.30
2023-12-21T02:47:01.615Z,5.20
2023-12-21T02:49:29.593Z,5.40
2023-12-21T02:51:57.664Z,6.30
2023-12-21T02:54:26.307Z,4.90
2023-12-21T02:56:54.342Z,5.40
2023-12-21T02:59:22.359Z,6.00
2023-12-21T03:01:50.358Z,5.70
2023-12-21T03:04:18.371Z,5.90
2023-12-21T03:06:46.461Z,8.70
2023-12-21T03:09:14.555Z,5.60
2023-12-21T03:11:42.577Z,6.60
2023-12-21T03:14:10.753Z,4.80
2023-12-21T03:16:38.696Z,6.50
2023-12-21T03:19:06.819Z,6.00
2023-12-21T03:21:34.984Z,6.10
2023-12-21T03:24:02.897Z,5.70
2023-12-21T03:26:33.025Z,5.70
2023-12-21T03:29:01.045Z,6.90
2023-12-21T03:31:29.070Z,4.90
2023-12-21T03:33:57.157Z,4.80
2023-12-21T03:36:25.305Z,8.10
2023-12-21T03:38:53.205Z,7.90
2023-12-21T03:41:21.344Z,5.80
2023-12-21T03:43:49.275Z,6.50
2023-12-21T03:46:17.313Z,5.30
2023-12-21T03:48:45.960Z,7.30
2023-12-21T03:51:14.311Z,5.90
2023-12-21T03:53:42.845Z,8.70
2023-12-21T03:56:11.014Z,7.40
2023-12-21T03:58:41.933Z,6.60
2023-12-21T04:01:10.396Z,5.40
2023-12-21T04:03:38.656Z,8.70
2023-12-21T04:06:07.363Z,8.30
2023-12-21T04:08:35.313Z,8.30
2023-12-21T04:11:03.728Z,8.50
2023-12-21T04:13:31.689Z,9.10
2023-12-21T04:15:59.977Z,13.70
2023-12-21T04:18:28.144Z,15.30
2023-12-21T04:20:58.455Z,13.70
2023-12-21T04:23:27.911Z,15.40
2023-12-21T04:25:56.257Z,11.60
2023-12-21T04:28:24.655Z,15.30
2023-12-21T04:30:52.755Z,10.70
2023-12-21T04:33:20.913Z,10.00
2023-12-21T04:35:49.448Z,11.40
2023-12-21T04:38:17.426Z,11.20
2023-12-21T04:40:45.463Z,10.10
2023-12-21T04:43:13.641Z,14.20
2023-12-21T04:45:41.871Z,17.10
2023-12-21T04:48:09.976Z,10.80
2023-12-21T04:50:38.137Z,10.00
2023-12-21T04:53:06.419Z,12.40
2023-12-21T04:55:35.190Z,8.30
2023-12-21T04:58:03.235Z,10.10
2023-12-21T05:00:31.571Z,9.80
2023-12-21T05:02:59.695Z,12.70
2023-12-21T05:05:27.713Z,7.80
2023-12-21T05:07:57.281Z,9.00
2023-12-21T05:10:25.813Z,9.90
2023-12-21T05:12:53.949Z,11.60
2023-12-21T05:15:21.960Z,10.70
2023-12-21T05:17:49.993Z,6.30
2023-12-21T05:20:18.012Z,10.40
2023-12-21T05:22:46.212Z,11.40
2023-12-21T05:25:19.685Z,9.10
2023-12-21T05:27:47.671Z,13.60
2023-12-21T05:30:18.995Z,8.70
2023-12-21T05:32:47.761Z,10.10
2023-12-21T05:35:16.377Z,8.90
2023-12-21T05:37:44.456Z,8.40
2023-12-21T05:40:14.003Z,13.70
2023-12-21T05:42:42.140Z,9.50
2023-12-21T05:45:10.489Z,11.20
2023-12-21T05:47:38.584Z,10.80
2023-12-21T05:50:07.249Z,12.90
2023-12-21T05:52:35.329Z,11.00
2023-12-21T05:55:04.126Z,16.30
2023-12-21T05:57:32.130Z,12.70
2023-12-21T06:00:00.549Z,11.00
2023-12-21T06:02:28.704Z,15.00
2023-12-21T06:04:56.870Z,21.50
2023-12-21T06:07:24.876Z,16.10
2023-12-21T06:09:53.767Z,16.70
2023-12-21T06:12:21.709Z,19.00
2023-12-21T06:14:50.035Z,23.80
2023-12-21T06:17:19.273Z,20.10
2023-12-21T06:19:47.318Z,20.90
2023-12-21T06:22:16.240Z,20.30
2023-12-21T06:24:44.231Z,20.10
2023-12-21T06:27:12.922Z,43.90
2023-12-21T06:29:42.658Z,54.40
2023-12-21T06:32:11.765Z,42.20
2023-12-21T06:34:39.799Z,33.60
2023-12-21T06:37:08.759Z,31.40
2023-12-21T06:39:36.833Z,40.50
2023-12-21T06:42:05.563Z,43.10
2023-12-21T06:44:33.712Z,51.10
2023-12-21T06:47:01.758Z,41.30
2023-12-21T06:49:29.984Z,32.00
2023-12-21T06:51:58.100Z,32.20
2023-12-21T06:54:26.268Z,25.80
2023-12-21T06:56:54.212Z,27.90
2023-12-21T06:59:22.571Z,30.20
2023-12-21T07:01:50.710Z,31.20
2023-12-21T07:04:20.032Z,26.40
2023-12-21T07:06:48.157Z,26.50
2023-12-21T07:09:17.376Z,27.80
2023-12-21T07:11:46.730Z,27.80
2023-12-21T07:14:15.512Z,24.60
2023-12-21T07:16:43.507Z,24.90
2023-12-21T07:19:11.623Z,21.60
2023-12-21T07:21:39.673Z,24.30
2023-12-21T07:24:07.785Z,34.70
2023-12-21T07:26:38.074Z,28.60
2023-12-21T07:29:06.239Z,27.70
2023-12-21T07:31:34.339Z,26.10
2023-12-21T07:34:02.524Z,27.70
2023-12-21T07:36:30.546Z,20.80
2023-12-21T07:38:58.657Z,21.30
2023-12-21T07:41:26.724Z,20.80
2023-12-21T07:43:55.212Z,22.20
2023-12-21T07:46:23.389Z,20.30
2023-12-21T07:48:52.074Z,23.40
2023-12-21T07:51:20.088Z,23.20
2023-12-21T07:53:48.184Z,26.00
2023-12-21T07:56:16.282Z,21.00
2023-12-21T07:58:44.369Z,23.20
2023-12-21T08:01:12.559Z,25.20
2023-12-21T08:03:40.674Z,23.10
2023-12-21T08:06:08.640Z,22.70
2023-12-21T08:08:41.613Z,21.60
2023-12-21T08:11:16.700Z,20.60
2023-12-21T08:13:44.751Z,28.00
2023-12-21T08:16:12.785Z,24.10
2023-12-21T08:18:41.086Z,22.70
2023-12-21T08:21:09.068Z,24.20
2023-12-21T08:23:36.998Z,24.00
2023-12-21T08:26:07.373Z,19.00
2023-12-21T08:28:35.555Z,19.80
2023-12-21T08:31:05.241Z,22.70
2023-12-21T08:33:33.905Z,26.60
2023-12-21T08:36:02.133Z,22.90
2023-12-21T08:38:30.137Z,24.00
2023-12-21T08:40:58.176Z,21.50
2023-12-21T08:43:26.832Z,26.60
2023-12-21T08:45:54.871Z,19.60
2023-12-21T08:48:22.866Z,22.00
2023-12-21T08:50:51.543Z,17.50
2023-12-21T08:53:19.464Z,20.80
2023-12-21T08:55:47.621Z,26.00
2023-12-21T08:58:16.066Z,21.90
2023-12-21T09:00:46.049Z,18.80
2023-12-21T09:03:14.094Z,23.00
2023-12-21T09:05:42.166Z,19.70
2023-12-21T09:08:10.225Z,20.00
2023-12-21T09:10:38.199Z,19.40
2023-12-21T09:13:06.817Z,21.10
2023-12-21T09:15:34.963Z,18.90
2023-12-21T09:18:04.590Z,19.10
2023-12-21T09:20:32.675Z,22.10
2023-12-21T09:23:01.148Z,21.20
2023-12-21T09:25:29.282Z,17.10
2023-12-21T09:27:59.374Z,19.50
2023-12-21T09:30:27.814Z,19.90
2023-12-21T09:32:56.074Z,15.10
2023-12-21T09:35:24.502Z,23.70
2023-12-21T09:37:52.997Z,22.50
2023-12-21T09:40:21.128Z,19.50
2023-12-21T09:43:01.058Z,19.30
2023-12-21T09:45:33.225Z,21.60
2023-12-21T09:48:01.896Z,18.00
2023-12-21T09:50:33.002Z,21.00
2023-12-21T09:53:01.085Z,44.80
2023-12-21T09:55:29.709Z,48.70
2023-12-21T09:57:57.774Z,40.10
2023-12-21T10:00:26.086Z,24.50
2023-12-21T10:02:54.919Z,20.80
2023-12-21T10:05:22.980Z,22.00
2023-12-21T10:07:51.025Z,15.90
2023-12-21T10:10:20.001Z,17.80
2023-12-21T10:12:49.244Z,19.30
2023-12-21T10:15:20.974Z,15.90
2023-12-21T10:17:49.653Z,13.80
2023-12-21T10:20:17.836Z,18.50
2023-12-21T10:22:46.602Z,15.50
2023-12-21T10:25:14.947Z,18.70
2023-12-21T10:27:56.266Z,16.20
2023-12-21T10:30:24.916Z,15.60
2023-12-21T10:32:59.597Z,16.60
2023-12-21T10:35:30.462Z,17.50
2023-12-21T10:37:59.165Z,16.70
2023-12-21T10:40:27.261Z,22.20
2023-12-21T10:42:56.007Z,16.20
2023-12-21T10:45:33.440Z,16.90
2023-12-21T10:48:08.360Z,15.90
2023-12-21T10:50:36.741Z,17.70
2023-12-21T10:53:04.862Z,18.90
2023-12-21T10:55:33.652Z,17.70
2023-12-21T10:58:02.446Z,15.20
2023-12-21T11:00:30.492Z,18.00
2023-12-21T11:02:58.546Z,18.60
2023-12-21T11:05:28.427Z,16.90
2023-12-21T11:07:57.151Z,17.50
2023-12-21T11:10:25.374Z,19.80
2023-12-21T11:12:54.234Z,19.90
2023-12-21T11:15:22.249Z,17.60
2023-12-21T11:17:54.621Z,15.90
2023-12-21T11:20:35.219Z,14.30
2023-12-21T11:23:10.236Z,16.10
2023-12-21T11:25:38.345Z,16.40
2023-12-21T11:28:06.518Z,17.10
2023-12-21T11:30:34.936Z,18.80
2023-12-21T11:33:10.483Z,24.40
2023-12-21T11:35:38.755Z,18.20
2023-12-21T11:38:07.722Z,18.20
2023-12-21T11:40:36.951Z,16.90
2023-12-21T11:43:08.861Z,17.40
2023-12-21T11:45:40.532Z,17.10
2023-12-21T11:48:12.969Z,14.60
2023-12-21T11:50:41.235Z,21.20
2023-12-21T11:53:14.796Z,17.00
2023-12-21T11:55:45.461Z,19.30
2023-12-21T11:58:21.627Z,15.90
2023-12-21T12:00:55.287Z,15.60
2023-12-21T12:03:29.378Z,13.00
2023-12-21T12:06:01.625Z,19.00
2023-12-21T12:08:29.714Z,11.00
2023-12-21T12:11:00.970Z,16.90
2023-12-21T12:16:00.094Z,16.00
2023-12-21T12:18:28.095Z,12.60
2023-12-21T12:21:02.446Z,13.80
2023-12-21T12:23:30.823Z,13.80
2023-12-21T12:25:59.201Z,13.40
2023-12-21T12:28:28.373Z,11.00
2023-12-21T12:30:57.329Z,15.60
2023-12-21T12:33:25.752Z,15.30
2023-12-21T12:35:53.972Z,18.80
2023-12-21T12:38:22.298Z,16.90
2023-12-21T12:40:51.129Z,14.60
2023-12-21T12:43:19.878Z,14.30
2023-12-21T12:45:48.185Z,16.30
2023-12-21T12:48:19.902Z,23.20
2023-12-21T12:53:19.370Z,18.30
2023-12-21T12:55:48.591Z,20.50
2023-12-21T12:58:16.980Z,20.80
2023-12-21T13:00:45.487Z,25.50
2023-12-21T13:03:14.522Z,17.70
2023-12-21T13:05:42.931Z,20.20
2023-12-21T13:08:11.496Z,23.50
2023-12-21T13:10:39.739Z,22.00
2023-12-21T13:13:08.091Z,21.60
2023-12-21T13:15:36.493Z,21.30
2023-12-21T13:18:05.050Z,24.10
2023-12-21T13:20:33.379Z,28.90
2023-12-21T13:23:01.768Z,23.60
2023-12-21T13:25:30.037Z,26.10
2023-12-21T13:28:11.187Z,23.60
2023-12-21T13:30:43.885Z,26.40
2023-12-21T13:33:13.545Z,30.30
2023-12-21T13:35:41.991Z,27.70
2023-12-21T13:38:10.473Z,29.10
2023-12-21T13:40:38.726Z,25.20
2023-12-21T13:43:07.094Z,31.60
2023-12-21T13:45:36.178Z,25.70
2023-12-21T13:48:06.288Z,28.70
2023-12-21T13:50:35.411Z,26.40
2023-12-21T13:53:03.781Z,30.40
2023-12-21T13:55:32.094Z,30.20
2023-12-21T13:58:00.286Z,24.70
2023-12-21T14:00:30.183Z,23.40
2023-12-21T14:02:59.076Z,25.40
2023-12-21T14:05:27.489Z,29.00
2023-12-21T14:07:56.037Z,24.60
2023-12-21T14:10:24.924Z,28.80
2023-12-21T14:12:58.264Z,28.50
2023-12-21T14:15:27.745Z,28.40
2023-12-21T14:17:56.118Z,24.90
2023-12-21T14:20:25.388Z,27.10
2023-12-21T14:22:54.113Z,25.00
2023-12-21T14:25:22.547Z,27.40
2023-12-21T14:27:50.908Z,30.00
2023-12-21T14:30:19.331Z,32.50
2023-12-21T14:32:47.652Z,32.80
2023-12-21T14:35:16.183Z,31.00
2023-12-21T14:37:45.024Z,37.80
2023-12-21T14:40:13.587Z,31.80
2023-12-21T14:42:41.963Z,31.40
2023-12-21T14:45:11.257Z,33.50
2023-12-21T14:47:39.501Z,33.10
2023-12-21T14:50:08.622Z,30.50
2023-12-21T14:52:37.277Z,29.00
2023-12-21T14:55:06.523Z,34.40
2023-12-21T14:57:34.805Z,35.30
2023-12-21T15:00:04.512Z,35.90
2023-12-21T15:02:32.925Z,44.20
2023-12-21T15:05:01.322Z,48.70
2023-12-21T15:07:30.044Z,41.50
2023-12-21T15:10:02.948Z,41.70
2023-12-21T15:12:31.090Z,37.80
2023-12-21T15:14:59.383Z,33.30
2023-12-21T15:17:27.622Z,39.90
2023-12-21T15:19:55.999Z,31.50
2023-12-21T15:22:24.353Z,40.40
2023-12-21T15:24:52.803Z,38.60
2023-12-21T15:27:21.116Z,31.40
2023-12-21T15:29:49.745Z,31.30
2023-12-21T15:32:18.076Z,34.70
2023-12-21T15:34:46.505Z,42.00
2023-12-21T15:37:14.970Z,39.30
2023-12-21T15:39:45.651Z,37.50
2023-12-21T15:42:14.027Z,38.20
2023-12-21T15:44:42.275Z,35.50
2023-12-21T15:47:10.489Z,32.10
2023-12-21T15:49:38.735Z,36.40
2023-12-21T15:52:08.607Z,35.00
2023-12-21T15:54:37.147Z,36.80
2023-12-21T15:57:05.841Z,36.70
2023-12-21T15:59:36.603Z,35.50
2023-12-21T16:02:05.574Z,38.50
2023-12-21T16:04:36.780Z,36.70
2023-12-21T16:07:05.582Z,34.90
2023-12-21T16:22:11.747Z,32.30
2023-12-21T16:24:40.334Z,30.30
2023-12-21T16:27:11.074Z,41.10
2023-12-21T16:29:42.186Z,36.40
2023-12-21T16:32:10.938Z,29.90
2023-12-21T16:34:41.735Z,31.20
2023-12-21T16:37:10.178Z,40.80
2023-12-21T16:39:38.755Z,70.90
2023-12-21T16:42:07.242Z,52.70
2023-12-21T16:44:36.117Z,71.30
2023-12-21T16:47:04.947Z,59.10
2023-12-21T16:49:33.210Z,54.20
2023-12-21T16:52:04.543Z,53.00
2023-12-21T16:54:32.860Z,43.10
2023-12-21T16:57:01.169Z,51.40
2023-12-21T16:59:29.788Z,47.60
2023-12-21T17:01:58.764Z,46.70
2023-12-21T17:04:27.155Z,32.30
2023-12-21T17:06:55.510Z,32.50
2023-12-21T17:09:23.886Z,36.50
2023-12-21T17:11:52.137Z,36.10
2023-12-21T17:14:20.568Z,36.70
2023-12-21T17:16:48.817Z,47.30
2023-12-21T17:19:17.376Z,52.10
2023-12-21T17:21:45.815Z,44.30
2023-12-21T17:24:14.133Z,47.00
2023-12-21T17:26:42.445Z,37.70
2023-12-21T17:29:10.779Z,46.00
2023-12-21T17:31:39.196Z,37.00
2023-12-21T17:34:09.469Z,42.60
2023-12-21T17:36:39.828Z,41.70
2023-12-21T17:39:08.292Z,38.20
2023-12-21T17:41:36.600Z,34.90
2023-12-21T17:44:04.976Z,38.40
2023-12-21T17:46:33.334Z,40.70
2023-12-21T17:49:01.687Z,42.90
2023-12-21T17:51:30.054Z,41.50
2023-12-21T17:53:58.301Z,38.10
2023-12-21T17:56:26.773Z,45.50
2023-12-21T17:58:55.145Z,47.30
2023-12-21T18:01:23.768Z,50.50
2023-12-21T18:03:52.286Z,38.90
2023-12-21T18:06:21.193Z,33.20
2023-12-21T18:08:49.907Z,38.60
2023-12-21T18:11:18.863Z,33.00
2023-12-21T18:13:47.609Z,39.90
2023-12-21T18:16:16.048Z,33.00
2023-12-21T18:18:44.345Z,47.40
2023-12-21T18:21:15.535Z,43.00
2023-12-21T18:23:43.778Z,40.70
2023-12-21T18:26:11.982Z,37.70
2023-12-21T18:28:40.310Z,43.50
2023-12-21T18:31:08.808Z,46.90
2023-12-21T18:33:39.328Z,41.50
2023-12-21T18:36:07.909Z,39.10
2023-12-21T18:38:36.174Z,46.80
2023-12-21T18:41:04.770Z,42.30
2023-12-21T18:43:33.154Z,36.50
2023-12-21T18:46:01.523Z,39.10
2023-12-21T18:48:30.181Z,42.10
2023-12-21T18:50:59.853Z,35.20
2023-12-21T18:53:29.958Z,39.00
2023-12-21T18:56:00.638Z,33.20
2023-12-21T18:58:29.331Z,39.30
2023-12-21T19:00:57.608Z,44.10
2023-12-21T19:03:26.973Z,50.20
2023-12-21T19:05:55.764Z,48.10
2023-12-21T19:08:24.605Z,42.80
2023-12-21T19:10:53.900Z,41.60
2023-12-21T19:13:22.312Z,36.70
2023-12-21T19:15:50.509Z,42.80
2023-12-21T19:18:18.977Z,38.50
2023-12-21T19:20:47.933Z,35.60
2023-12-21T19:23:16.433Z,38.30
2023-12-21T19:25:44.927Z,43.80
2023-12-21T19:28:13.360Z,37.90
2023-12-21T19:30:41.642Z,32.80
2023-12-21T19:33:14.193Z,31.80
2023-12-21T19:35:42.686Z,34.30
2023-12-21T19:38:11.020Z,25.20
2023-12-21T19:40:39.550Z,35.20
2023-12-21T19:43:08.403Z,31.80
2023-12-21T19:45:36.795Z,32.90
2023-12-21T19:48:06.001Z,34.30
2023-12-21T19:50:38.161Z,33.80
2023-12-21T19:53:07.354Z,35.70
2023-12-21T19:55:38.024Z,36.30
2023-12-21T19:58:06.966Z,35.00
2023-12-21T20:00:35.195Z,37.20
2023-12-21T20:03:03.788Z,37.10
2023-12-21T20:05:32.759Z,35.50
2023-12-21T20:08:01.286Z,36.80
2023-12-21T20:10:29.700Z,34.40
2023-12-21T20:12:57.966Z,36.40
2023-12-21T20:15:26.741Z,37.90
2023-12-21T20:17:55.437Z,49.40
2023-12-21T20:20:23.882Z,41.00
2023-12-21T20:22:52.215Z,34.50
2023-12-21T20:25:20.589Z,41.00
2023-12-21T20:27:51.156Z,47.30
2023-12-21T20:30:19.631Z,37.10
2023-12-21T20:32:49.777Z,54.00
2023-12-21T20:35:17.846Z,39.10
2023-12-21T20:37:48.949Z,34.80
2023-12-21T20:40:18.390Z,40.20
2023-12-21T20:42:47.336Z,40.80
2023-12-21T20:45:15.930Z,41.50
2023-12-21T20:47:44.284Z,35.90
2023-12-21T20:50:17.576Z,39.40
2023-12-21T20:52:45.984Z,37.60
2023-12-21T20:55:16.303Z,37.40
2023-12-21T20:57:44.905Z,29.40
2023-12-21T21:00:13.616Z,27.30
2023-12-21T21:02:41.676Z,36.10
2023-12-21T21:05:10.920Z,51.50
2023-12-21T21:07:39.111Z,41.20
2023-12-21T21:10:07.507Z,37.90
2023-12-21T21:12:35.798Z,36.80
2023-12-21T21:15:04.219Z,34.10
2023-12-21T21:17:32.568Z,30.80
2023-12-21T21:20:03.606Z,31.60
2023-12-21T21:22:31.839Z,34.20
2023-12-21T21:24:59.909Z,32.10
2023-12-21T21:27:27.902Z,28.40
2023-12-21T21:29:55.957Z,26.70
2023-12-21T21:32:24.487Z,33.50
2023-12-21T21:34:52.576Z,28.70
2023-12-21T21:37:23.333Z,31.80
2023-12-21T21:39:52.150Z,30.00
2023-12-21T21:42:20.216Z,27.40
2023-12-21T21:44:48.348Z,31.10
2023-12-21T21:47:16.323Z,25.80
2023-12-21T21:49:44.452Z,34.20
2023-12-21T21:52:12.682Z,29.00
2023-12-21T21:54:40.712Z,29.60
2023-12-21T21:57:08.766Z,30.70
2023-12-21T21:59:37.677Z,28.40
2023-12-21T22:02:07.349Z,31.90
2023-12-21T22:04:36.010Z,28.70
2023-12-21T22:07:05.340Z,29.40
2023-12-21T22:09:33.469Z,31.90
2023-12-21T22:12:02.136Z,31.70
2023-12-21T22:14:30.222Z,28.40
2023-12-21T22:16:58.316Z,28.80
2023-12-21T22:19:26.493Z,31.70
2023-12-21T22:21:54.884Z,35.00
2023-12-21T22:24:23.032Z,31.50
2023-12-21T22:26:51.173Z,26.20
2023-12-21T22:29:19.351Z,33.00
2023-12-21T22:31:47.556Z,29.50
2023-12-21T22:34:15.619Z,22.60
2023-12-21T22:36:44.018Z,30.90
2023-12-21T22:39:12.045Z,29.80
2023-12-21T22:41:40.083Z,28.60
2023-12-21T22:44:08.259Z,31.50
2023-12-21T22:46:36.418Z,25.20
2023-12-21T22:49:04.563Z,25.70
2023-12-21T22:55:23.605Z,34.10
2023-12-21T22:57:51.752Z,40.30
2023-12-21T23:00:20.487Z,29.40
2023-12-21T23:02:52.059Z,26.00
2023-12-21T23:05:20.191Z,36.30
2023-12-21T23:07:48.368Z,29.40
2023-12-21T23:10:16.869Z,27.10
2023-12-21T23:12:47.937Z,27.30
2023-12-21T23:15:16.607Z,30.90
2023-12-21T23:17:44.867Z,33.90
2023-12-21T23:20:13.099Z,29.90
2023-12-21T23:22:41.279Z,28.20
2023-12-21T23:25:09.799Z,22.10
2023-12-21T23:27:37.854Z,27.70
2023-12-21T23:30:06.845Z,30.70
2023-12-21T23:32:35.030Z,24.60
2023-12-21T23:35:13.328Z,27.30
2023-12-21T23:37:46.817Z,31.20
2023-12-21T23:40:15.996Z,23.30
2023-12-21T23:42:44.409Z,27.10
2023-12-21T23:45:12.704Z,24.90
2023-12-21T23:47:41.077Z,29.50
2023-12-21T23:50:09.532Z,25.60
2023-12-21T23:52:38.274Z,31.50
2023-12-21T23:55:07.440Z,30.70
2023-12-21T23:57:35.411Z,28.60
